createdAt,value
2022-08-07T00:00:25.895Z,97737.85
2022-08-07T00:03:06.042Z,97737.14
2022-08-07T00:05:37.695Z,97739.23
2022-08-07T00:08:05.891Z,97738.10
2022-08-07T00:10:36.072Z,97739.49
2022-08-07T00:13:25.544Z,97744.11
2022-08-07T00:15:54.897Z,97745.91
2022-08-07T00:18:24.943Z,97749.45
2022-08-07T00:20:54.482Z,97753.61
2022-08-07T00:23:22.533Z,97752.93
2022-08-07T00:25:59.096Z,97747.23
2022-08-07T00:28:33.215Z,97752.25
2022-08-07T00:31:04.330Z,97757.11
2022-08-07T00:33:34.879Z,97756.39
2022-08-07T00:36:03.805Z,97756.06
2022-08-07T00:38:33.378Z,97763.36
2022-08-07T00:41:02.058Z,97763.71
2022-08-07T00:44:01.617Z,97760.70
2022-08-07T00:46:18.203Z,97761.02
2022-08-07T00:48:49.763Z,97762.58
2022-08-07T00:51:18.190Z,97762.56
2022-08-07T00:53:50.550Z,97766.15
2022-08-07T00:56:30.422Z,97763.66
2022-08-07T00:59:02.102Z,97759.40
2022-08-07T01:01:30.158Z,97762.81
2022-08-07T01:04:12.312Z,97763.60
2022-08-07T01:06:52.505Z,97759.46
2022-08-07T01:10:05.038Z,97759.77
2022-08-07T01:12:29.636Z,97760.15
2022-08-07T01:15:01.687Z,97759.94
2022-08-07T01:17:32.895Z,97763.39
2022-08-07T01:20:06.723Z,97763.48
2022-08-07T01:22:47.057Z,97762.64
2022-08-07T01:25:53.854Z,97762.98
2022-08-07T01:28:16.494Z,97765.59
2022-08-07T01:30:45.418Z,97762.66
2022-08-07T01:33:15.723Z,97762.11
2022-08-07T01:35:54.194Z,97766.80
2022-08-07T01:38:25.734Z,97769.17
2022-08-07T01:40:59.248Z,97770.02
2022-08-07T01:43:34.561Z,97771.02
2022-08-07T01:46:08.319Z,97769.09
2022-08-07T01:48:46.568Z,97770.52
2022-08-07T01:52:02.098Z,97767.98
2022-08-07T01:54:22.155Z,97768.61
2022-08-07T01:57:04.991Z,97771.13
2022-08-07T01:59:36.364Z,97768.36
2022-08-07T02:02:07.260Z,97767.73
2022-08-07T02:04:56.168Z,97763.62
2022-08-07T02:07:35.922Z,97766.16
2022-08-07T02:10:14.573Z,97762.70
2022-08-07T02:12:46.421Z,97764.52
2022-08-07T02:15:26.407Z,97764.28
2022-08-07T02:17:57.555Z,97770.05
2022-08-07T02:20:30.418Z,97775.02
2022-08-07T02:23:01.967Z,97775.55
2022-08-07T02:26:31.540Z,97774.78
2022-08-07T02:28:24.410Z,97778.39
2022-08-07T02:30:53.984Z,97778.31
2022-08-07T02:33:24.408Z,97781.34
2022-08-07T02:36:28.703Z,97784.66
2022-08-07T02:38:57.007Z,97787.88
2022-08-07T02:41:26.938Z,97788.37
2022-08-07T02:44:05.271Z,97790.46
2022-08-07T02:46:34.435Z,97789.13
2022-08-07T02:49:05.760Z,97790.61
2022-08-07T02:51:42.702Z,97790.00
2022-08-07T02:54:20.534Z,97792.38
2022-08-07T02:56:53.912Z,97791.31
2022-08-07T02:59:27.443Z,97796.50
2022-08-07T03:02:02.168Z,97800.08
2022-08-07T03:04:31.226Z,97803.60
2022-08-07T03:07:03.423Z,97805.68
2022-08-07T03:09:43.398Z,97810.38
2022-08-07T03:12:22.345Z,97814.67
2022-08-07T03:15:02.244Z,97815.66
2022-08-07T03:17:36.272Z,97816.10
2022-08-07T03:20:20.418Z,97814.06
2022-08-07T03:22:50.196Z,97814.70
2022-08-07T03:25:21.118Z,97818.89
2022-08-07T03:27:59.299Z,97819.11
2022-08-07T03:30:37.537Z,97826.29
2022-08-07T03:33:09.987Z,97821.88
2022-08-07T03:35:50.037Z,97822.73
2022-08-07T03:38:21.475Z,97820.61
2022-08-07T03:41:00.410Z,97823.02
2022-08-07T03:43:32.322Z,97827.91
2022-08-07T03:46:03.283Z,97827.67
2022-08-07T03:48:34.908Z,97833.57
2022-08-07T03:51:25.020Z,97831.83
2022-08-07T03:54:33.156Z,97830.98
2022-08-07T03:57:03.451Z,97827.27
2022-08-07T03:59:35.251Z,97823.71
2022-08-07T04:02:03.262Z,97821.48
2022-08-07T04:04:32.631Z,97823.70
2022-08-07T04:07:16.616Z,97823.58
2022-08-07T04:09:50.218Z,97827.44
2022-08-07T04:12:28.454Z,97831.68
2022-08-07T04:14:59.448Z,97834.57
2022-08-07T04:18:11.195Z,97830.56
2022-08-07T04:20:19.640Z,97827.62
2022-08-07T04:22:53.579Z,97830.34
2022-08-07T04:25:30.349Z,97833.54
2022-08-07T04:28:04.578Z,97833.65
2022-08-07T04:30:43.459Z,97839.11
2022-08-07T04:33:24.461Z,97841.48
2022-08-07T04:35:54.299Z,97839.14
2022-08-07T04:38:28.115Z,97844.73
2022-08-07T04:40:57.466Z,97840.88
2022-08-07T04:44:14.584Z,97843.92
2022-08-07T04:46:59.206Z,97845.98
2022-08-07T04:49:25.553Z,97848.95
2022-08-07T04:52:13.551Z,97844.73
2022-08-07T04:55:00.270Z,97841.76
2022-08-07T04:58:14.418Z,97844.20
2022-08-07T05:00:33.842Z,97843.36
2022-08-07T05:03:59.799Z,97846.40
2022-08-07T05:06:16.329Z,97843.95
2022-08-07T05:09:02.457Z,97848.66
2022-08-07T05:11:58.730Z,97854.37
2022-08-07T05:14:56.531Z,97857.86
2022-08-07T05:17:51.643Z,97860.52
2022-08-07T05:20:23.860Z,97864.86
2022-08-07T05:22:55.111Z,97866.65
2022-08-07T05:25:25.637Z,97870.41
2022-08-07T05:28:20.120Z,97871.00
2022-08-07T05:30:55.865Z,97866.57
2022-08-07T05:33:28.461Z,97869.70
2022-08-07T05:35:58.555Z,97870.07
2022-08-07T05:39:01.236Z,97867.16
2022-08-07T05:41:18.482Z,97865.42
2022-08-07T05:44:08.116Z,97864.29
2022-08-07T05:46:43.021Z,97866.52
2022-08-07T05:49:13.106Z,97867.31
2022-08-07T05:51:46.541Z,97868.13
2022-08-07T05:54:31.008Z,97870.02
2022-08-07T05:57:06.613Z,97876.44
2022-08-07T05:59:57.422Z,97878.09
2022-08-07T06:02:31.486Z,97875.77
2022-08-07T06:05:15.438Z,97877.05
2022-08-07T06:08:14.109Z,97876.75
2022-08-07T06:10:36.659Z,97873.90
2022-08-07T06:13:05.906Z,97875.56
2022-08-07T06:15:42.970Z,97874.80
2022-08-07T06:18:14.537Z,97881.21
2022-08-07T06:20:51.116Z,97882.48
2022-08-07T06:24:37.300Z,97879.67
2022-08-07T06:26:27.388Z,97880.31
2022-08-07T06:28:58.995Z,97884.10
2022-08-07T06:31:46.858Z,97885.24
2022-08-07T06:34:16.387Z,97885.91
2022-08-07T06:36:52.154Z,97886.02
2022-08-07T06:40:16.246Z,97889.80
2022-08-07T06:42:16.074Z,97887.89
2022-08-07T06:45:11.323Z,97885.02
2022-08-07T06:47:48.125Z,97879.50
2022-08-07T06:50:30.474Z,97876.42
2022-08-07T06:53:01.160Z,97875.12
2022-08-07T06:55:53.908Z,97876.16
2022-08-07T06:58:24.657Z,97874.10
2022-08-07T07:01:03.073Z,97873.18
2022-08-07T07:03:48.871Z,97872.98
2022-08-07T07:06:23.861Z,97871.13
2022-08-07T07:08:55.370Z,97875.27
2022-08-07T07:12:08.478Z,97877.27
2022-08-07T07:14:15.408Z,97877.13
2022-08-07T07:16:49.683Z,97876.98
2022-08-07T07:19:55.976Z,97874.52
2022-08-07T07:22:32.344Z,97878.55
2022-08-07T07:25:13.891Z,97874.94
2022-08-07T07:27:56.266Z,97878.13
2022-08-07T07:30:39.796Z,97876.41
2022-08-07T07:33:13.610Z,97877.75
2022-08-07T07:36:03.847Z,97874.91
2022-08-07T07:38:32.909Z,97874.19
2022-08-07T07:41:05.481Z,97873.85
2022-08-07T07:44:14.203Z,97869.13
2022-08-07T07:46:53.684Z,97874.65
2022-08-07T07:50:34.881Z,97880.00
2022-08-07T07:52:10.572Z,97876.67
2022-08-07T07:54:39.990Z,97871.56
2022-08-07T07:57:50.348Z,97874.59
2022-08-07T08:00:10.778Z,97881.02
2022-08-07T08:03:05.091Z,97873.90
2022-08-07T08:05:43.014Z,97868.41
2022-08-07T08:08:35.185Z,97864.76
2022-08-07T08:11:08.567Z,97856.73
2022-08-07T08:13:54.483Z,97863.18
2022-08-07T08:18:36.839Z,97865.30
2022-08-07T08:20:16.198Z,97858.64
2022-08-07T08:22:32.743Z,97854.86
2022-08-07T08:25:41.867Z,97851.01
2022-08-07T08:28:11.594Z,97853.02
2022-08-07T08:30:50.985Z,97852.72
2022-08-07T08:33:20.563Z,97845.14
2022-08-07T08:35:51.985Z,97847.44
2022-08-07T08:38:29.595Z,97859.96
2022-08-07T08:41:02.860Z,97856.31
2022-08-07T08:43:41.710Z,97853.25
2022-08-07T08:46:21.965Z,97854.93
2022-08-07T08:48:50.904Z,97852.09
2022-08-07T08:51:49.195Z,97850.65
2022-08-07T08:54:18.595Z,97857.94
2022-08-07T08:56:49.907Z,97853.26
2022-08-07T08:59:25.236Z,97851.51
2022-08-07T09:02:08.907Z,97838.07
2022-08-07T09:04:37.391Z,97840.09
2022-08-07T09:07:11.233Z,97845.91
2022-08-07T09:10:08.961Z,97837.45
2022-08-07T09:12:36.769Z,97840.73
2022-08-07T09:16:23.067Z,97842.07
2022-08-07T09:18:29.995Z,97842.52
2022-08-07T09:21:01.621Z,97846.77
2022-08-07T09:24:30.375Z,97841.38
2022-08-07T09:26:23.642Z,97834.77
2022-08-07T09:30:05.064Z,97831.67
2022-08-07T09:31:51.644Z,97830.01
2022-08-07T09:34:32.465Z,97829.04
2022-08-07T09:37:03.228Z,97828.86
2022-08-07T09:39:54.664Z,97830.69
2022-08-07T09:42:33.275Z,97832.03
2022-08-07T09:47:27.299Z,97825.00
2022-08-07T09:48:19.983Z,97822.35
2022-08-07T09:51:00.469Z,97822.64
2022-08-07T09:53:41.429Z,97819.44
2022-08-07T09:56:19.655Z,97815.12
2022-08-07T09:59:14.002Z,97814.80
2022-08-07T10:02:05.283Z,97814.48
2022-08-07T10:04:52.825Z,97815.73
2022-08-07T10:07:31.595Z,97812.45
2022-08-07T10:10:28.301Z,97801.98
2022-08-07T10:13:00.574Z,97805.09
2022-08-07T10:15:57.220Z,97809.13
2022-08-07T10:19:11.383Z,97804.14
2022-08-07T10:22:12.011Z,97808.25
2022-08-07T10:24:51.857Z,97806.65
2022-08-07T10:27:22.993Z,97801.54
2022-08-07T10:29:56.810Z,97807.40
2022-08-07T10:32:53.069Z,97805.94
2022-08-07T10:35:55.727Z,97805.21
2022-08-07T10:38:42.284Z,97798.20
2022-08-07T10:41:52.339Z,97794.89
2022-08-07T10:44:09.773Z,97793.79
2022-08-07T10:46:56.191Z,97791.80
2022-08-07T10:49:49.078Z,97784.61
2022-08-07T10:52:21.799Z,97781.79
2022-08-07T10:55:27.006Z,97783.63
2022-08-07T10:57:57.658Z,97775.23
2022-08-07T11:00:36.580Z,97768.20
2022-08-07T11:03:12.855Z,97768.69
2022-08-07T11:06:02.961Z,97763.05
2022-08-07T11:08:42.147Z,97757.73
2022-08-07T11:11:21.146Z,97760.52
2022-08-07T11:14:44.284Z,97762.45
2022-08-07T11:16:41.049Z,97752.14
2022-08-07T11:19:21.522Z,97751.62
2022-08-07T11:21:54.938Z,97743.34
2022-08-07T11:24:30.040Z,97736.73
2022-08-07T11:27:03.607Z,97735.65
2022-08-07T11:29:41.750Z,97733.48
2022-08-07T11:32:26.020Z,97732.61
2022-08-07T11:34:57.405Z,97730.11
2022-08-07T11:37:57.537Z,97729.90
2022-08-07T11:40:40.297Z,97729.74
2022-08-07T11:43:17.621Z,97732.45
2022-08-07T11:46:00.586Z,97730.52
2022-08-07T11:49:04.359Z,97723.31
2022-08-07T11:51:45.120Z,97716.90
2022-08-07T11:54:26.617Z,97713.23
2022-08-07T11:57:12.625Z,97707.19
2022-08-07T12:00:09.999Z,97707.08
2022-08-07T12:02:54.387Z,97701.25
2022-08-07T12:05:41.638Z,97699.36
2022-08-07T12:08:26.118Z,97700.98
2022-08-07T12:11:21.498Z,97695.55
2022-08-07T12:14:10.452Z,97701.18
2022-08-07T12:17:05.393Z,97699.33
2022-08-07T12:20:02.519Z,97692.73
2022-08-07T12:22:39.197Z,97685.33
2022-08-07T12:26:05.777Z,97677.33
2022-08-07T12:28:49.853Z,97664.58
2022-08-07T12:31:53.097Z,97665.27
2022-08-07T12:34:33.347Z,97673.05
2022-08-07T12:37:01.787Z,97673.17
2022-08-07T12:39:44.024Z,97667.02
2022-08-07T12:42:27.628Z,97666.32
2022-08-07T12:45:05.703Z,97661.02
2022-08-07T12:47:52.840Z,97661.80
2022-08-07T12:50:40.360Z,97660.71
2022-08-07T12:53:17.765Z,97666.00
2022-08-07T12:56:02.763Z,97664.58
2022-08-07T12:58:35.568Z,97664.39
2022-08-07T13:01:03.482Z,97658.73
2022-08-07T13:03:53.563Z,97657.21
2022-08-07T13:07:01.389Z,97654.87
2022-08-07T13:10:19.633Z,97649.66
2022-08-07T13:12:26.880Z,97643.06
2022-08-07T13:15:07.396Z,97643.99
2022-08-07T13:18:26.101Z,97642.69
2022-08-07T13:20:57.658Z,97639.14
2022-08-07T13:24:02.081Z,97640.87
2022-08-07T13:26:29.917Z,97642.70
2022-08-07T13:29:11.089Z,97647.19
2022-08-07T13:31:55.050Z,97648.31
2022-08-07T13:34:35.878Z,97644.13
2022-08-07T13:37:10.967Z,97644.14
2022-08-07T13:40:33.906Z,97644.60
2022-08-07T13:42:43.427Z,97644.89
2022-08-07T13:46:11.610Z,97639.46
2022-08-07T13:48:08.077Z,97638.60
2022-08-07T13:50:44.903Z,97634.83
2022-08-07T13:53:35.974Z,97637.59
2022-08-07T13:56:19.259Z,97637.09
2022-08-07T13:59:05.809Z,97629.68
2022-08-07T14:02:04.109Z,97622.83
2022-08-07T14:04:36.097Z,97630.90
2022-08-07T14:07:09.672Z,97638.08
2022-08-07T14:10:01.344Z,97643.30
2022-08-07T14:12:54.827Z,97646.61
2022-08-07T14:15:31.756Z,97644.95
2022-08-07T14:18:27.911Z,97651.66
2022-08-07T14:21:21.026Z,97649.11
2022-08-07T14:24:04.103Z,97659.79
2022-08-07T14:26:52.102Z,97664.27
2022-08-07T14:30:06.525Z,97665.70
2022-08-07T14:32:12.492Z,97663.40
2022-08-07T14:34:46.186Z,97662.12
2022-08-07T14:37:16.984Z,97664.80
2022-08-07T14:40:16.512Z,97665.98
2022-08-07T14:43:55.143Z,97664.84
2022-08-07T14:45:46.482Z,97666.02
2022-08-07T14:48:20.510Z,97664.46
2022-08-07T14:50:54.117Z,97665.63
2022-08-07T14:54:05.580Z,97665.21
2022-08-07T14:59:02.231Z,97666.07
2022-08-07T15:01:50.933Z,97662.59
2022-08-07T15:04:25.039Z,97662.60
2022-08-07T15:06:53.456Z,97661.79
2022-08-07T15:09:59.676Z,97665.23
2022-08-07T15:12:25.848Z,97676.97
2022-08-07T15:15:07.527Z,97677.15
2022-08-07T15:17:55.108Z,97678.02
2022-08-07T15:20:33.363Z,97674.29
2022-08-07T15:23:20.146Z,97678.90
2022-08-07T15:25:53.568Z,97681.05
2022-08-07T15:28:36.192Z,97685.01
2022-08-07T15:31:10.944Z,97684.22
2022-08-07T15:33:42.668Z,97679.89
2022-08-07T15:36:11.999Z,97685.79
2022-08-07T15:38:51.491Z,97688.91
2022-08-07T15:42:44.050Z,97686.13
2022-08-07T15:44:19.206Z,97685.91
2022-08-07T15:46:52.730Z,97690.45
2022-08-07T15:49:25.491Z,97692.95
2022-08-07T15:54:34.265Z,97697.00
2022-08-07T15:57:04.687Z,97695.56
2022-08-07T15:59:39.790Z,97702.39
2022-08-07T16:02:24.341Z,97703.19
2022-08-07T16:04:59.000Z,97700.55
2022-08-07T16:08:32.667Z,97697.22
2022-08-07T16:10:28.579Z,97701.59
2022-08-07T16:13:39.398Z,97697.73
2022-08-07T16:16:42.778Z,97697.29
2022-08-07T16:19:42.263Z,97699.94
2022-08-07T16:22:30.130Z,97703.92
2022-08-07T16:25:54.210Z,97705.54
2022-08-07T16:30:06.258Z,97714.52
2022-08-07T16:31:51.129Z,97714.78
2022-08-07T16:34:24.552Z,97714.56
2022-08-07T16:37:03.269Z,97716.09
2022-08-07T16:39:48.906Z,97719.14
2022-08-07T16:42:33.304Z,97723.95
2022-08-07T16:46:21.357Z,97726.10
2022-08-07T16:48:13.582Z,97729.55
2022-08-07T16:51:20.499Z,97732.05
2022-08-07T16:54:10.747Z,97739.67
2022-08-07T16:56:49.883Z,97740.67
2022-08-07T16:59:24.232Z,97747.39
2022-08-07T17:01:58.277Z,97747.30
2022-08-07T17:04:50.653Z,97751.48
2022-08-07T17:07:55.508Z,97751.54
2022-08-07T17:10:33.009Z,97753.22
2022-08-07T17:13:04.360Z,97750.27
2022-08-07T17:15:44.398Z,97753.48
2022-08-07T17:18:28.197Z,97754.41
2022-08-07T17:20:56.774Z,97757.84
2022-08-07T17:23:39.964Z,97754.56
2022-08-07T17:26:23.527Z,97757.73
2022-08-07T17:28:59.236Z,97761.35
2022-08-07T17:31:44.381Z,97766.17
2022-08-07T17:34:57.099Z,97771.85
2022-08-07T17:38:05.942Z,97767.98
2022-08-07T17:40:35.719Z,97770.55
2022-08-07T17:43:15.119Z,97774.13
2022-08-07T17:45:56.584Z,97772.50
2022-08-07T17:48:30.792Z,97775.66
2022-08-07T17:51:01.731Z,97783.08
2022-08-07T17:54:01.400Z,97783.54
2022-08-07T17:56:36.175Z,97786.90
2022-08-07T17:59:23.668Z,97786.32
2022-08-07T18:02:00.780Z,97788.52
2022-08-07T18:04:35.252Z,97790.13
2022-08-07T18:07:20.262Z,97792.05
2022-08-07T18:10:32.090Z,97791.52
2022-08-07T18:13:00.758Z,97797.48
2022-08-07T18:15:32.571Z,97803.92
2022-08-07T18:18:46.458Z,97808.24
2022-08-07T18:21:38.167Z,97807.82
2022-08-07T18:24:33.826Z,97809.50
2022-08-07T18:27:21.780Z,97812.13
2022-08-07T18:30:31.581Z,97818.23
2022-08-07T18:33:16.425Z,97823.41
2022-08-07T18:35:59.238Z,97826.57
2022-08-07T18:38:57.299Z,97824.63
2022-08-07T18:41:45.900Z,97830.83
2022-08-07T18:44:32.169Z,97831.30
2022-08-07T18:47:02.939Z,97829.42
2022-08-07T18:50:31.531Z,97834.66
2022-08-07T18:52:53.329Z,97839.73
2022-08-07T18:55:41.957Z,97839.49
2022-08-07T18:58:16.861Z,97841.44
2022-08-07T19:00:54.264Z,97846.98
2022-08-07T19:03:37.650Z,97846.98
2022-08-07T19:06:16.698Z,97847.02
2022-08-07T19:08:46.499Z,97849.02
2022-08-07T19:11:36.137Z,97848.95
2022-08-07T19:14:17.325Z,97850.70
2022-08-07T19:17:05.580Z,97854.80
2022-08-07T19:19:42.173Z,97855.85
2022-08-07T19:22:31.466Z,97859.27
2022-08-07T19:25:05.423Z,97862.45
2022-08-07T19:28:57.421Z,97860.52
2022-08-07T19:31:03.087Z,97863.73
2022-08-07T19:33:34.715Z,97860.11
2022-08-07T19:36:08.677Z,97855.17
2022-08-07T19:38:52.461Z,97851.13
2022-08-07T19:41:44.927Z,97855.04
2022-08-07T19:44:22.046Z,97852.38
2022-08-07T19:46:55.889Z,97851.05
2022-08-07T19:49:58.431Z,97857.90
2022-08-07T19:52:18.579Z,97858.70
2022-08-07T19:54:56.548Z,97859.81
2022-08-07T19:58:02.986Z,97863.80
2022-08-07T20:00:21.806Z,97864.16
2022-08-07T20:03:05.240Z,97867.42
2022-08-07T20:06:00.071Z,97867.73
2022-08-07T20:08:42.226Z,97868.30
2022-08-07T20:11:34.095Z,97865.91
2022-08-07T20:14:13.727Z,97868.91
2022-08-07T20:16:54.321Z,97872.95
2022-08-07T20:19:28.860Z,97875.52
2022-08-07T20:22:15.559Z,97879.55
2022-08-07T20:24:47.499Z,97881.20
2022-08-07T20:27:42.977Z,97885.79
2022-08-07T20:30:10.971Z,97881.29
2022-08-07T20:32:41.946Z,97875.08
2022-08-07T20:35:12.951Z,97878.30
2022-08-07T20:37:58.423Z,97876.75
2022-08-07T20:40:32.590Z,97877.79
2022-08-07T20:43:02.649Z,97880.83
2022-08-07T20:46:28.389Z,97879.41
2022-08-07T20:48:28.497Z,97870.66
2022-08-07T20:51:01.732Z,97872.77
2022-08-07T20:54:03.057Z,97875.52
2022-08-07T20:56:26.520Z,97877.84
2022-08-07T20:58:58.684Z,97876.80
2022-08-07T21:01:29.914Z,97880.34
2022-08-07T21:04:22.437Z,97883.40
2022-08-07T21:06:55.089Z,97883.48
2022-08-07T21:09:30.129Z,97884.46
2022-08-07T21:12:28.716Z,97886.72
2022-08-07T21:14:58.848Z,97885.95
2022-08-07T21:18:09.149Z,97884.23
2022-08-07T21:20:26.705Z,97885.00
2022-08-07T21:23:08.665Z,97889.84
2022-08-07T21:25:56.678Z,97893.38
2022-08-07T21:28:48.568Z,97900.00
2022-08-07T21:32:10.771Z,97908.21
2022-08-07T21:34:26.436Z,97917.59
2022-08-07T21:37:07.473Z,97920.68
2022-08-07T21:39:46.628Z,97919.48
2022-08-07T21:42:41.812Z,97916.29
2022-08-07T21:46:04.693Z,97917.53
2022-08-07T21:48:27.823Z,97912.80
2022-08-07T21:51:27.811Z,97913.52
2022-08-07T21:54:18.927Z,97912.44
2022-08-07T21:57:05.451Z,97912.63
2022-08-07T22:00:02.977Z,97911.98
2022-08-07T22:02:27.183Z,97914.94
2022-08-07T22:04:57.212Z,97911.67
2022-08-07T22:07:31.557Z,97914.95
2022-08-07T22:10:17.781Z,97914.95
2022-08-07T22:12:57.836Z,97914.55
2022-08-07T22:16:39.927Z,97911.58
2022-08-07T22:18:36.572Z,97914.27
2022-08-07T22:21:22.077Z,97919.90
2022-08-07T22:23:56.766Z,97922.84
2022-08-07T22:26:44.230Z,97925.13
2022-08-07T22:29:37.919Z,97930.41
2022-08-07T22:32:11.494Z,97932.25
2022-08-07T22:34:53.378Z,97934.56
2022-08-07T22:38:01.879Z,97937.81
2022-08-07T22:40:25.192Z,97941.09
2022-08-07T22:42:59.143Z,97940.48
2022-08-07T22:46:04.856Z,97942.73
2022-08-07T22:48:55.345Z,97944.03
2022-08-07T22:51:44.433Z,97941.23
2022-08-07T22:54:32.726Z,97940.48
2022-08-07T22:57:19.211Z,97935.47
2022-08-07T22:59:59.895Z,97938.86
2022-08-07T23:02:46.301Z,97940.30
2022-08-07T23:06:08.405Z,97942.74
2022-08-07T23:08:32.248Z,97944.62
2022-08-07T23:11:18.235Z,97945.88
2022-08-07T23:14:10.575Z,97947.20
2022-08-07T23:16:55.349Z,97945.83
2022-08-07T23:19:59.873Z,97949.87
2022-08-07T23:22:49.553Z,97946.55
2022-08-07T23:25:38.997Z,97944.10
2022-08-07T23:28:28.478Z,97948.36
2022-08-07T23:31:11.243Z,97948.26
2022-08-07T23:34:23.710Z,97947.94
2022-08-07T23:37:18.608Z,97952.84
2022-08-07T23:39:41.303Z,97953.75
2022-08-07T23:42:30.386Z,97951.40
2022-08-07T23:45:15.505Z,97945.93
2022-08-07T23:48:02.600Z,97945.83
2022-08-07T23:50:37.544Z,97947.52
2022-08-07T23:53:19.014Z,97948.33
2022-08-07T23:55:55.331Z,97946.13
2022-08-07T23:58:36.261Z,97946.33
